GCRR/ACE METAR and TAF weather

Enter ICAO airport designator
Station Type Date Time Source
GCRR METAR 2022/05/24 11:00 UTC NOAA

GCRR 241100Z 02013KT 350V050 9999 FEW025 BKN030 23/16 Q1017


Station Type Date Time Source
GCRR Decoded METAR 2022/05/24 11:00 UTC NOAA

Lanzarote / Aeropuerto, Spain (GCRR) 28-57N 013-36W 21M
May 24, 2022 - 07:00 AM EDT / 2022.05.24 1100 UTC
Wind: from the NNE (020 degrees) at 15 MPH (13 KT) (direction variable):0
Visibility: greater than 7 mile(s):0
Sky conditions: mostly cloudy
Temperature: 73 F (23 C)
Dew Point: 60 F (16 C)
Relative Humidity: 64%
Pressure (altimeter): 30.03 in. Hg (1017 hPa)
ob: GCRR 241100Z 02013KT 350V050 9999 FEW025 BKN030 23/16 Q1017
cycle: 11

Station Type Date Time Source
GCRR TAF 2022/05/24 09:28 UTC NOAA

TAF GCRR 240800Z 2409/2509 03017KT 9999 SCT035 TX27/2414Z TN18/2506Z

Example: see airport list